Time;durP1;ratioP1;P1;durP2;ratioP2;P2;SDS_P1;SDS_P2;PMS_P1;PMS_P2;Temp;Humidity;BMP_temperature;BMP_pressure;BME280_temperature;BME280_humidity;BME280_pressure;Samples;Min_cycle;Max_cycle;Signal;HPM_P1;HPM_P2
2024/01/23 00:01:20;;;;;;;46.75;22.77;;;;;;;-11.31;67.95;95844.22;5132496;27;20577;-68
2024/01/23 00:03:46;;;;;;;52.78;26.45;;;;;;;-11.46;67.35;95826.34;5131426;27;20065;-69
2024/01/23 00:06:11;;;;;;;43.47;23.75;;;;;;;-11.39;67.67;95835.69;5114919;27;20027;-69
2024/01/23 00:08:37;;;;;;;37.70;21.00;;;;;;;-11.40;68.10;95839.00;5115246;27;20028;-69
2024/01/23 00:11:02;;;;;;;36.70;19.80;;;;;;;-11.41;67.90;95834.81;5118580;27;20039;-69
2024/01/23 00:13:28;;;;;;;34.70;19.63;;;;;;;-11.45;67.62;95837.22;5131970;27;20571;-68
2024/01/23 00:15:53;;;;;;;30.05;19.00;;;;;;;-11.74;67.87;95793.25;5132061;27;20039;-68
2024/01/23 00:18:18;;;;;;;37.33;21.15;;;;;;;-11.52;67.18;95828.75;5113411;27;20084;-68
2024/01/23 00:20:46;;;;;;;31.48;18.50;;;;;;;-11.48;67.11;95833.00;5131483;27;20489;-68
2024/01/23 00:23:12;;;;;;;33.10;17.67;;;;;;;-11.47;67.03;95844.75;5131510;27;20065;-68
2024/01/23 00:25:37;;;;;;;40.42;18.70;;;;;;;-11.55;67.26;95832.06;5130644;27;20523;-68
2024/01/23 00:28:04;;;;;;;41.47;21.80;;;;;;;-11.71;67.86;95800.00;5131717;27;20042;-69
2024/01/23 00:30:29;;;;;;;38.40;20.65;;;;;;;-11.61;68.03;95823.59;5130514;27;20404;-69
2024/01/23 00:32:54;;;;;;;39.15;20.98;;;;;;;-11.56;66.87;95819.47;5097897;27;20043;-68
2024/01/23 00:35:20;;;;;;;29.08;17.38;;;;;;;-11.61;66.42;95818.56;5128647;27;20026;-68
2024/01/23 00:37:45;;;;;;;32.42;16.92;;;;;;;-11.66;66.94;95820.97;5114208;27;20038;-68
2024/01/23 00:40:11;;;;;;;32.13;17.13;;;;;;;-11.71;67.31;95823.41;5143912;27;20031;-68
2024/01/23 00:42:37;;;;;;;27.75;14.52;;;;;;;-11.87;68.24;95801.38;5130449;27;20023;-67
2024/01/23 00:45:03;;;;;;;33.08;17.70;;;;;;;-11.81;67.37;95805.63;5131419;27;20404;-69
2024/01/23 00:47:29;;;;;;;34.95;18.08;;;;;;;-11.90;68.35;95808.84;5132964;27;20515;-68
2024/01/23 00:49:54;;;;;;;39.03;20.08;;;;;;;-11.86;68.46;95808.09;5131973;27;20027;-68
2024/01/23 00:52:19;;;;;;;28.85;16.13;;;;;;;-11.79;68.38;95802.34;5132842;27;20027;-68
2024/01/23 00:54:45;;;;;;;35.35;19.48;;;;;;;-11.83;68.00;95792.25;5131851;27;20027;-68
2024/01/23 00:57:10;;;;;;;34.80;19.15;;;;;;;-11.82;67.66;95789.75;5133042;27;20386;-68
2024/01/23 00:59:36;;;;;;;35.70;16.77;;;;;;;-11.74;67.44;95800.78;5114665;27;20096;-69
2024/01/23 01:02:02;;;;;;;26.73;15.20;;;;;;;-11.80;67.22;95795.66;5133019;27;20020;-68
2024/01/23 01:04:27;;;;;;;24.92;13.52;;;;;;;-11.86;67.59;95799.75;5133300;27;20047;-68
2024/01/23 01:06:53;;;;;;;25.75;14.10;;;;;;;-11.98;68.19;95781.16;5131768;27;20443;-68
2024/01/23 01:09:18;;;;;;;27.95;13.65;;;;;;;-12.21;68.57;95732.25;5131967;27;20023;-68
2024/01/23 01:11:44;;;;;;;22.27;12.68;;;;;;;-12.20;67.91;95728.91;5131602;27;20038;-68
2024/01/23 01:14:10;;;;;;;27.35;16.20;;;;;;;-11.98;68.55;95773.63;5121062;27;20462;-68
2024/01/23 01:16:35;;;;;;;22.83;13.73;;;;;;;-11.85;68.34;95787.19;5093829;28;20036;-68
2024/01/23 01:19:01;;;;;;;26.15;15.07;;;;;;;-11.86;68.71;95778.03;5110919;28;20031;-68
2024/01/23 01:21:26;;;;;;;23.90;15.18;;;;;;;-11.84;68.00;95776.34;5111107;28;20024;-68
2024/01/23 01:23:52;;;;;;;29.30;18.35;;;;;;;-11.84;68.29;95778.84;5110800;28;20050;-68
2024/01/23 01:26:17;;;;;;;33.00;18.40;;;;;;;-11.77;67.69;95774.81;5093971;28;20039;-68
2024/01/23 01:28:43;;;;;;;37.55;20.35;;;;;;;-11.87;68.19;95766.28;5093613;28;20032;-69
2024/01/23 01:31:08;;;;;;;34.40;18.90;;;;;;;-11.85;67.54;95764.63;5110893;28;20429;-68
2024/01/23 01:33:33;;;;;;;40.33;22.75;;;;;;;-11.85;67.63;95761.31;5109873;28;20691;-68
2024/01/23 01:35:59;;;;;;;36.33;22.45;;;;;;;-11.84;68.34;95763.81;5112172;28;20039;-69
2024/01/23 01:38:24;;;;;;;38.67;22.15;;;;;;;-11.83;67.44;95763.00;5111781;28;20030;-68
2024/01/23 01:40:50;;;;;;;44.22;23.08;;;;;;;-11.86;67.29;95755.47;5110711;28;20024;-68
2024/01/23 01:43:29;;;;;;;35.65;22.55;;;;;;;-11.93;67.21;95748.66;5111701;28;20473;-68
2024/01/23 01:46:10;;;;;;;40.10;20.13;;;;;;;-11.93;66.97;95748.66;5093729;28;20069;-68
2024/01/23 01:48:37;;;;;;;42.00;22.92;;;;;;;-11.94;67.77;95751.97;5111543;28;20038;-68
2024/01/23 01:51:02;;;;;;;35.33;21.83;;;;;;;-12.00;70.04;95746.84;5110671;28;20417;-68
2024/01/23 01:53:28;;;;;;;41.05;21.70;;;;;;;-12.00;68.51;95741.84;5110584;28;20511;-68
2024/01/23 01:55:53;;;;;;;43.03;22.48;;;;;;;-12.06;68.24;95739.19;5110424;28;20039;-68
2024/01/23 01:58:19;;;;;;;27.42;18.45;;;;;;;-11.96;68.16;95746.09;5093292;28;20031;-68
2024/01/23 02:00:45;;;;;;;28.48;18.98;;;;;;;-12.10;70.07;95745.00;5076600;28;20039;-68
2024/01/23 02:03:11;;;;;;;35.38;19.45;;;;;;;-12.13;71.08;95734.91;5092934;28;20052;-68
2024/01/23 02:05:36;;;;;;;36.80;20.90;;;;;;;-12.18;72.86;95723.13;5093376;28;20061;-68
2024/01/23 02:08:01;;;;;;;30.75;18.10;;;;;;;-12.09;73.14;95745.00;5110061;28;20016;-68
2024/01/23 02:10:27;;;;;;;32.30;20.50;;;;;;;-12.10;71.95;95755.84;5110239;28;20032;-68
2024/01/23 02:12:52;;;;;;;35.83;19.98;;;;;;;-12.18;73.28;95742.31;5109891;28;20034;-68
2024/01/23 02:15:18;;;;;;;28.17;18.02;;;;;;;-12.21;74.72;95732.25;5076229;28;20040;-68
2024/01/23 02:17:44;;;;;;;31.45;18.67;;;;;;;-12.20;74.74;95738.94;5110012;28;20031;-68
2024/01/23 02:20:10;;;;;;;26.90;16.92;;;;;;;-12.24;73.77;95715.50;5111460;28;20031;-68
2024/01/23 02:22:35;;;;;;;32.38;18.55;;;;;;;-12.20;74.06;95732.28;5093311;28;20061;-68
2024/01/23 02:25:01;;;;;;;27.77;16.40;;;;;;;-12.19;72.96;95716.44;5109818;28;20036;-68
2024/01/23 02:27:26;;;;;;;26.10;16.67;;;;;;;-12.18;72.36;95728.13;5110016;28;20031;-68
2024/01/23 02:29:51;;;;;;;27.33;19.67;;;;;;;-12.18;72.40;95733.16;5111189;28;20027;-68
2024/01/23 02:32:17;;;;;;;29.17;18.58;;;;;;;-12.24;72.02;95738.03;5115535;28;20023;-68
2024/01/23 02:34:44;;;;;;;33.25;16.73;;;;;;;-12.27;71.80;95737.16;5131630;27;20027;-69
2024/01/23 02:37:09;;;;;;;34.38;18.70;;;;;;;-12.27;71.50;95725.47;5130232;27;20034;-68
2024/01/23 02:39:35;;;;;;;28.63;17.95;;;;;;;-12.23;70.39;95727.22;5113121;28;20032;-68
2024/01/23 02:42:01;;;;;;;31.00;18.83;;;;;;;-12.25;70.68;95716.31;5122637;28;20038;-69
2024/01/23 02:44:26;;;;;;;30.63;17.02;;;;;;;-12.22;70.45;95710.53;5111758;28;20024;-68
2024/01/23 02:46:52;;;;;;;27.30;14.93;;;;;;;-12.17;69.80;95708.97;5079934;28;20028;-68
2024/01/23 02:49:17;;;;;;;26.73;16.05;;;;;;;-12.26;69.98;95694.56;5113764;28;20035;-68
2024/01/23 02:51:43;;;;;;;28.48;17.10;;;;;;;-12.26;69.16;95689.56;5128961;27;20035;-68
2024/01/23 02:54:08;;;;;;;21.77;15.57;;;;;;;-12.32;68.37;95689.47;5134258;27;20020;-68
2024/01/23 02:56:34;;;;;;;22.92;14.00;;;;;;;-12.45;68.68;95695.03;5134320;27;20080;-68
2024/01/23 02:58:59;;;;;;;22.35;15.75;;;;;;;-12.59;69.14;95679.75;5132904;27;20404;-68
2024/01/23 03:01:24;;;;;;;33.63;17.45;;;;;;;-12.45;68.94;95678.38;5116769;27;20034;-68
2024/01/23 03:03:50;;;;;;;23.77;15.63;;;;;;;-12.54;68.90;95674.84;5135210;27;20043;-68
2024/01/23 03:06:15;;;;;;;23.35;15.57;;;;;;;-12.46;68.54;95680.84;5134334;27;20035;-68
2024/01/23 03:08:41;;;;;;;26.48;17.55;;;;;;;-12.51;68.38;95678.25;5131465;27;20023;-68
2024/01/23 03:11:06;;;;;;;34.00;16.35;;;;;;;-12.46;67.63;95671.66;5134128;27;20119;-68
2024/01/23 03:13:32;;;;;;;23.98;14.38;;;;;;;-12.50;68.13;95654.91;5135078;27;20027;-68
2024/01/23 03:15:57;;;;;;;26.40;16.20;;;;;;;-12.48;68.00;95667.44;5133954;27;20034;-69
2024/01/23 03:18:22;;;;;;;33.60;17.45;;;;;;;-12.36;69.27;95664.34;5124179;27;20019;-68
2024/01/23 03:20:48;;;;;;;26.92;18.83;;;;;;;-12.42;69.63;95655.91;5096377;28;20043;-68
2024/01/23 03:23:13;;;;;;;27.25;17.65;;;;;;;-12.32;69.03;95653.56;5113252;28;20032;-69
2024/01/23 03:25:39;;;;;;;36.17;18.95;;;;;;;-12.35;68.24;95649.34;5114684;28;20481;-68
2024/01/23 03:28:04;;;;;;;27.38;16.15;;;;;;;-12.34;68.25;95642.66;5127491;27;20023;-68
2024/01/23 03:30:30;;;;;;;28.48;15.25;;;;;;;-12.39;68.29;95635.06;5133709;27;20095;-68
2024/01/23 03:32:56;;;;;;;31.50;18.02;;;;;;;-12.39;68.49;95635.06;5133517;27;20488;-68
2024/01/23 03:35:21;;;;;;;31.48;17.38;;;;;;;-12.30;68.34;95637.75;5115327;27;20041;-68
2024/01/23 03:37:47;;;;;;;27.05;18.63;;;;;;;-12.35;67.94;95618.44;5113208;27;20031;-68
2024/01/23 03:40:12;;;;;;;28.67;16.45;;;;;;;-12.25;67.75;95626.16;5112954;28;20043;-68
2024/01/23 03:42:37;;;;;;;27.00;17.48;;;;;;;-12.23;67.25;95624.53;5097915;28;20019;-68
2024/01/23 03:45:03;;;;;;;31.02;18.05;;;;;;;-12.32;67.42;95615.97;5115804;27;20035;-68
2024/01/23 03:47:29;;;;;;;28.60;17.80;;;;;;;-12.34;67.08;95620.13;5132006;27;20416;-68
2024/01/23 03:49:54;;;;;;;30.95;20.15;;;;;;;-12.34;67.41;95630.97;5133551;27;20024;-69
2024/01/23 03:52:20;;;;;;;35.03;19.25;;;;;;;-12.48;67.79;95602.34;5132978;27;20019;-68
2024/01/23 03:54:45;;;;;;;24.73;15.38;;;;;;;-12.35;69.15;95624.28;5129204;27;20043;-68
2024/01/23 03:57:11;;;;;;;20.00;14.57;;;;;;;-12.45;71.69;95624.94;5132342;27;20027;-68
2024/01/23 03:59:37;;;;;;;30.48;15.85;;;;;;;-12.58;71.71;95620.53;5134230;27;20396;-68
2024/01/23 04:02:02;;;;;;;22.25;15.05;;;;;;;-12.63;72.64;95627.94;5132918;27;20031;-68
2024/01/23 04:04:27;;;;;;;24.88;14.63;;;;;;;-12.44;73.89;95614.13;5130059;27;20466;-68
2024/01/23 04:06:53;;;;;;;31.48;16.73;;;;;;;-12.75;74.15;95566.00;5132958;27;20493;-68
2024/01/23 04:09:18;;;;;;;30.63;15.18;;;;;;;-12.46;74.78;95618.25;5132733;27;20024;-69
2024/01/23 04:11:46;;;;;;;35.60;14.30;;;;;;;-12.40;75.42;95618.34;5132491;27;20499;-68
2024/01/23 04:14:11;;;;;;;32.97;17.17;;;;;;;-12.37;75.51;95610.88;5131128;27;20492;-68
2024/01/23 04:16:36;;;;;;;30.15;15.30;;;;;;;-12.43;74.70;95601.59;5132865;27;20031;-68
2024/01/23 04:19:02;;;;;;;30.67;14.77;;;;;;;-12.48;74.91;95622.38;5115521;27;20031;-68
2024/01/23 04:21:28;;;;;;;28.00;15.07;;;;;;;-12.70;75.62;95596.97;5114218;27;20027;-68
2024/01/23 04:23:53;;;;;;;29.05;13.90;;;;;;;-12.56;75.44;95613.88;5114513;27;20035;-68
2024/01/23 04:26:19;;;;;;;33.45;17.13;;;;;;;-12.57;76.13;95609.69;5111479;27;20507;-68
2024/01/23 04:28:46;;;;;;;23.45;14.23;;;;;;;-12.74;76.44;95570.16;5121013;27;20068;-68
2024/01/23 04:31:11;;;;;;;25.50;14.57;;;;;;;-12.43;76.73;95609.13;5113290;27;20034;-68
2024/01/23 04:33:37;;;;;;;27.13;13.38;;;;;;;-12.63;76.56;95566.19;5132300;27;20019;-68
2024/01/23 04:36:03;;;;;;;33.28;18.83;;;;;;;-12.53;76.53;95593.91;5133861;27;20489;-68
2024/01/23 04:38:28;;;;;;;27.40;16.17;;;;;;;-12.54;76.56;95605.56;5115148;27;20477;-68
2024/01/23 04:40:53;;;;;;;28.42;16.80;;;;;;;-12.74;75.89;95589.34;5130039;27;20060;-68
2024/01/23 04:43:19;;;;;;;28.60;14.80;;;;;;;-12.62;76.30;95597.94;5098002;27;20019;-68
2024/01/23 04:45:44;;;;;;;21.48;13.98;;;;;;;-12.66;75.13;95593.69;5132114;27;20038;-68
2024/01/23 04:48:10;;;;;;;37.03;18.13;;;;;;;-12.72;74.52;95586.06;5114822;27;20050;-68
2024/01/23 04:50:35;;;;;;;35.55;16.02;;;;;;;-12.59;75.06;95587.13;5117535;27;20027;-68
2024/01/23 04:53:00;;;;;;;38.45;18.80;;;;;;;-12.57;74.54;95592.16;5111310;28;20081;-68
2024/01/23 04:55:26;;;;;;;33.88;19.13;;;;;;;-12.59;73.96;95599.63;5111491;28;20386;-68
2024/01/23 04:57:51;;;;;;;35.45;17.15;;;;;;;-12.72;73.73;95593.56;5096751;27;20046;-68
2024/01/23 05:00:20;;;;;;;27.05;18.38;;;;;;;-12.74;73.86;95590.19;5106766;28;20040;-66
2024/01/23 05:02:45;;;;;;;30.92;16.50;;;;;;;-12.90;73.36;95588.19;5120472;27;20530;-68
2024/01/23 05:05:11;;;;;;;27.77;14.93;;;;;;;-12.90;72.64;95600.72;5125192;27;20055;-68
2024/01/23 05:07:36;;;;;;;39.53;24.63;;;;;;;-12.82;71.39;95597.53;5116691;27;20035;-68
2024/01/23 05:10:04;;;;;;;30.73;16.67;;;;;;;-12.78;70.76;95603.47;5125861;27;20046;-68
2024/01/23 05:12:30;;;;;;;33.70;18.38;;;;;;;-12.76;70.76;95598.47;5111230;27;20024;-68
2024/01/23 05:14:55;;;;;;;26.80;17.38;;;;;;;-12.70;70.18;95584.44;5117422;27;20417;-68
2024/01/23 05:17:21;;;;;;;28.75;14.38;;;;;;;-12.59;70.06;95602.13;5118589;27;20027;-68
2024/01/23 05:19:46;;;;;;;39.58;19.15;;;;;;;-12.67;69.73;95598.69;5114808;27;20111;-68
2024/01/23 05:22:11;;;;;;;29.45;15.95;;;;;;;-12.64;69.45;95608.75;5106018;28;20035;-68
2024/01/23 05:24:37;;;;;;;23.75;16.27;;;;;;;-12.66;69.54;95593.69;5121263;27;20039;-68
2024/01/23 05:27:02;;;;;;;35.28;17.40;;;;;;;-12.77;69.23;95577.63;5115285;27;20084;-68
2024/01/23 05:29:28;;;;;;;34.17;18.55;;;;;;;-12.74;68.90;95596.84;5118394;27;20707;-68
2024/01/23 05:31:53;;;;;;;31.13;18.80;;;;;;;-12.70;69.78;95586.06;5122480;27;20042;-68
2024/01/23 05:34:19;;;;;;;26.05;15.73;;;;;;;-12.64;69.04;95589.56;5122182;27;20024;-68
2024/01/23 05:36:44;;;;;;;33.53;15.32;;;;;;;-12.66;68.35;95593.69;5118554;27;20038;-68
2024/01/23 05:39:09;;;;;;;29.60;17.05;;;;;;;-12.74;67.89;95582.69;5130832;27;20015;-68
2024/01/23 05:41:35;;;;;;;28.42;15.25;;;;;;;-12.71;67.31;95581.91;5121598;27;20054;-68
2024/01/23 05:44:01;;;;;;;29.30;16.20;;;;;;;-12.92;67.64;95555.66;5123976;27;20028;-68
2024/01/23 05:46:27;;;;;;;34.53;14.50;;;;;;;-12.77;66.83;95577.63;5110058;28;20070;-68
2024/01/23 05:48:52;;;;;;;33.95;14.57;;;;;;;-12.79;66.64;95574.22;5126712;27;20019;-68
2024/01/23 05:51:18;;;;;;;19.88;14.60;;;;;;;-12.84;67.10;95576.66;5129826;27;20544;-68
2024/01/23 05:53:43;;;;;;;20.67;12.95;;;;;;;-12.90;67.38;95573.19;5123734;27;20042;-68
2024/01/23 05:56:09;;;;;;;20.48;10.98;;;;;;;-13.23;67.67;95514.22;5130419;27;20042;-68
2024/01/23 05:58:34;;;;;;;14.82;9.68;;;;;;;-12.93;68.18;95566.47;5110386;27;20061;-69
2024/01/23 06:01:00;;;;;;;13.52;8.43;;;;;;;-13.09;68.32;95535.34;5127676;27;20027;-68
2024/01/23 06:03:25;;;;;;;10.73;8.20;;;;;;;-12.91;68.53;95569.00;5133443;27;20040;-68
2024/01/23 06:05:51;;;;;;;12.15;8.65;;;;;;;-12.82;68.59;95560.00;5134030;27;20377;-68
2024/01/23 06:08:26;;;;;;;21.17;12.88;;;;;;;-12.81;69.05;95558.38;5129701;27;20019;-68
2024/01/23 06:10:54;;;;;;;23.55;14.95;;;;;;;-12.83;69.63;95547.47;5127019;27;20104;-69
2024/01/23 06:13:19;;;;;;;13.25;10.18;;;;;;;-12.96;70.45;95556.41;5131119;27;20022;-68
2024/01/23 06:15:45;;;;;;;28.33;14.38;;;;;;;-12.66;69.97;95552.78;5143650;27;20031;-69
2024/01/23 06:18:10;;;;;;;19.52;12.73;;;;;;;-12.62;69.42;95545.38;5128045;27;20022;-69
2024/01/23 06:20:37;;;;;;;20.33;11.05;;;;;;;-12.64;69.66;95547.00;5119269;28;20038;-69
2024/01/23 06:23:02;;;;;;;23.00;11.57;;;;;;;-12.58;69.73;95556.28;5107381;28;20024;-69
2024/01/23 06:25:29;;;;;;;31.13;16.45;;;;;;;-12.44;69.26;95561.53;5126995;28;20088;-68
2024/01/23 06:27:55;;;;;;;20.80;13.50;;;;;;;-12.36;69.35;95561.66;5128269;27;20027;-68
2024/01/23 06:30:20;;;;;;;20.70;13.02;;;;;;;-12.27;68.75;95571.81;5115247;28;20046;-68
2024/01/23 06:32:46;;;;;;;23.50;14.80;;;;;;;-12.32;68.50;95564.22;5123951;28;20038;-69
2024/01/23 06:35:11;;;;;;;31.60;19.15;;;;;;;-12.26;68.67;95589.38;5126779;28;20031;-68
2024/01/23 06:37:36;;;;;;;48.97;23.70;;;;;;;-12.46;69.53;95595.69;5128412;27;20042;-68
2024/01/23 06:40:02;;;;;;;61.30;33.95;;;;;;;-12.74;71.11;95600.19;5127428;27;20031;-68
2024/01/23 06:42:27;;;;;;;69.28;40.90;;;;;;;-13.36;72.79;95560.66;5108346;28;20035;-69
2024/01/23 06:44:53;;;;;;;64.05;35.42;;;;;;;-13.09;73.24;95627.03;5122907;28;20090;-68
2024/01/23 06:47:18;;;;;;;49.97;30.73;;;;;;;-12.83;73.47;95620.06;5096896;28;20060;-68
2024/01/23 06:49:44;;;;;;;49.75;27.27;;;;;;;-12.62;71.10;95620.47;5118931;28;20043;-69
2024/01/23 06:52:09;;;;;;;37.47;20.58;;;;;;;-12.46;69.94;95630.75;5092340;28;20023;-68
2024/01/23 06:54:34;;;;;;;50.40;24.13;;;;;;;-12.43;69.49;95633.31;5120876;28;20061;-68
2024/01/23 06:57:00;;;;;;;31.58;21.05;;;;;;;-12.47;70.03;95629.09;5087649;28;20023;-68
2024/01/23 06:59:26;;;;;;;42.88;21.95;;;;;;;-12.29;69.08;95631.91;5108506;27;20299;-69
2024/01/23 07:01:52;;;;;;;36.47;20.55;;;;;;;-12.20;68.59;95639.59;5116898;28;20024;-68
2024/01/23 07:04:17;;;;;;;30.90;19.13;;;;;;;-12.10;68.23;95629.72;5119610;28;20055;-69
2024/01/23 07:06:43;;;;;;;37.40;19.88;;;;;;;-12.02;67.94;95639.06;5127479;28;20452;-68
2024/01/23 07:09:08;;;;;;;36.17;21.00;;;;;;;-11.99;67.82;95643.28;5129783;27;20026;-68
2024/01/23 07:11:33;;;;;;;36.33;18.90;;;;;;;-12.01;68.22;95630.72;5125354;28;20411;-67
2024/01/23 07:13:59;;;;;;;31.80;18.17;;;;;;;-11.95;68.45;95620.81;5075386;28;20035;-68
2024/01/23 07:16:25;;;;;;;37.33;17.58;;;;;;;-11.96;68.73;95614.09;5109513;28;20532;-68
2024/01/23 07:18:50;;;;;;;32.30;18.63;;;;;;;-11.84;69.22;95627.63;5110013;28;20032;-68
2024/01/23 07:21:16;;;;;;;35.17;16.95;;;;;;;-11.74;69.10;95610.25;5109319;28;20481;-68
2024/01/23 07:23:41;;;;;;;31.60;18.85;;;;;;;-11.76;68.71;95594.31;5108295;28;20031;-68
2024/01/23 07:26:07;;;;;;;37.55;19.92;;;;;;;-12.10;69.29;95539.53;5109311;28;20042;-68
2024/01/23 07:28:32;;;;;;;35.33;19.40;;;;;;;-11.68;69.36;95574.38;5109193;28;20478;-68
2024/01/23 07:30:58;;;;;;;42.05;20.83;;;;;;;-11.73;70.40;95581.00;5093815;28;20088;-67
2024/01/23 07:33:23;;;;;;;38.40;20.67;;;;;;;-11.80;70.01;95580.06;5094830;28;20023;-68
2024/01/23 07:35:50;;;;;;;35.33;21.17;;;;;;;-11.92;71.32;95572.41;5113030;28;20081;-68
2024/01/23 07:38:15;;;;;;;35.35;18.35;;;;;;;-11.68;70.91;95568.53;5112944;28;20019;-68
2024/01/23 07:40:41;;;;;;;44.90;21.52;;;;;;;-11.70;71.04;95581.91;5094594;28;20093;-68
2024/01/23 07:43:06;;;;;;;41.45;22.25;;;;;;;-11.55;71.64;95596.31;5093851;28;20035;-68
2024/01/23 07:45:32;;;;;;;66.13;30.10;;;;;;;-10.81;70.79;95594.75;5110882;28;20070;-68
2024/01/23 07:47:57;;;;;;;54.78;26.50;;;;;;;-9.83;69.10;95577.25;5111795;28;20027;-68
2024/01/23 07:50:23;;;;;;;60.33;29.88;;;;;;;-9.17;67.61;95587.78;5093648;28;20039;-68
2024/01/23 07:52:48;;;;;;;65.80;32.72;;;;;;;-8.87;65.54;95585.41;5111834;28;20643;-68
2024/01/23 07:55:13;;;;;;;99.75;43.17;;;;;;;-8.43;65.21;95588.94;5111284;28;20032;-68
2024/01/23 07:57:39;;;;;;;81.65;39.88;;;;;;;-7.91;65.66;95601.59;5095295;28;20027;-68
2024/01/23 08:00:05;;;;;;;69.15;34.50;;;;;;;-7.26;61.38;95612.53;5113915;28;20027;-69
2024/01/23 08:02:31;;;;;;;64.55;33.83;;;;;;;-7.67;62.28;95609.19;5112469;28;20416;-69
2024/01/23 08:04:56;;;;;;;60.10;33.85;;;;;;;-7.69;63.69;95613.41;5112337;27;20052;-69
2024/01/23 08:07:21;;;;;;;66.57;30.52;;;;;;;-7.43;61.40;95608.34;5112422;28;20027;-68
2024/01/23 08:09:47;;;;;;;72.05;34.78;;;;;;;-8.43;63.38;95609.09;5113612;27;20031;-68
2024/01/23 08:12:13;;;;;;;78.75;33.88;;;;;;;-7.76;62.96;95606.66;5113501;28;20026;-69
2024/01/23 08:14:38;;;;;;;70.72;35.05;;;;;;;-8.07;63.94;95593.19;5112073;28;20130;-68
2024/01/23 08:17:04;;;;;;;62.88;31.27;;;;;;;-7.63;63.50;95597.41;5112167;28;20069;-68
2024/01/23 08:19:30;;;;;;;60.92;31.23;;;;;;;-7.46;63.32;95597.41;5112111;28;20036;-68
2024/01/23 08:21:55;;;;;;;69.80;35.65;;;;;;;-8.38;65.31;95608.25;5113318;28;20019;-68
2024/01/23 08:24:21;;;;;;;81.65;39.25;;;;;;;-8.71;67.62;95603.97;5113227;28;20022;-68
2024/01/23 08:26:47;;;;;;;80.88;37.45;;;;;;;-8.52;66.82;95594.78;5113256;28;20491;-68
2024/01/23 08:29:12;;;;;;;78.45;37.67;;;;;;;-8.68;67.49;95598.94;5113165;28;20043;-68
2024/01/23 08:31:38;;;;;;;65.72;33.67;;;;;;;-8.77;67.93;95563.63;5112170;28;20538;-68
2024/01/23 08:34:04;;;;;;;71.45;35.03;;;;;;;-9.20;69.11;95586.06;5111757;28;20031;-68
2024/01/23 08:36:29;;;;;;;64.53;34.15;;;;;;;-9.22;68.89;95612.91;5113446;28;20387;-68
2024/01/23 08:38:54;;;;;;;60.15;34.33;;;;;;;-9.36;69.20;95604.44;5111755;28;20031;-68
2024/01/23 08:41:20;;;;;;;58.72;31.10;;;;;;;-9.53;69.36;95612.69;5111263;28;20039;-68
2024/01/23 08:43:45;;;;;;;73.13;33.78;;;;;;;-9.65;69.69;95612.63;5094594;28;20473;-68
2024/01/23 08:46:13;;;;;;;78.60;34.78;;;;;;;-9.74;70.06;95607.53;5111858;28;20047;-68
2024/01/23 08:48:39;;;;;;;66.65;31.88;;;;;;;-9.81;70.33;95605.78;5111550;28;20040;-68
2024/01/23 08:51:04;;;;;;;69.63;32.30;;;;;;;-9.77;70.77;95607.50;5113216;28;20036;-68
2024/01/23 08:53:30;;;;;;;66.13;32.22;;;;;;;-9.84;70.21;95600.72;5094483;28;20031;-68
2024/01/23 08:55:55;;;;;;;69.78;32.30;;;;;;;-9.74;70.00;95605.84;5112961;28;20066;-68
2024/01/23 08:58:21;;;;;;;74.43;36.08;;;;;;;-9.70;70.51;95605.03;5111329;28;20027;-68
2024/01/23 09:00:46;;;;;;;74.53;36.85;;;;;;;-9.87;70.67;95601.53;5094393;28;20043;-68
2024/01/23 09:03:11;;;;;;;65.15;30.98;;;;;;;-9.67;70.42;95594.16;5094173;28;20043;-68
2024/01/23 09:05:37;;;;;;;79.20;38.20;;;;;;;-9.54;70.25;95607.69;5111306;28;20027;-68
2024/01/23 09:08:03;;;;;;;78.22;40.30;;;;;;;-9.56;70.32;95600.09;5111134;28;20032;-68
2024/01/23 09:10:29;;;;;;;74.47;37.60;;;;;;;-9.26;70.19;95606.19;5112617;28;20390;-68
2024/01/23 09:12:54;;;;;;;68.53;36.33;;;;;;;-9.29;69.83;95588.56;5111099;28;20031;-68
2024/01/23 09:15:20;;;;;;;64.80;33.92;;;;;;;-8.70;69.01;95588.00;5094218;28;20062;-68
2024/01/23 09:17:45;;;;;;;71.30;35.35;;;;;;;-9.17;69.84;95576.03;5110927;28;20473;-68
2024/01/23 09:20:11;;;;;;;72.38;37.55;;;;;;;-9.25;70.50;95577.66;5112448;28;20034;-68
2024/01/23 09:22:36;;;;;;;73.22;34.75;;;;;;;-9.29;70.38;95535.69;5093916;28;20088;-68
2024/01/23 09:25:03;;;;;;;63.08;33.38;;;;;;;-8.51;69.77;95566.22;5094004;28;20031;-68
2024/01/23 09:27:29;;;;;;;62.90;32.72;;;;;;;-7.99;68.68;95557.88;5112329;28;20477;-68
2024/01/23 09:29:54;;;;;;;81.88;36.10;;;;;;;-7.93;68.63;95563.75;5093759;28;20088;-67
2024/01/23 09:32:19;;;;;;;74.38;38.47;;;;;;;-8.03;69.24;95561.22;5111997;28;20023;-68
2024/01/23 09:34:47;;;;;;;93.72;44.88;;;;;;;-7.96;68.88;95561.25;5110643;28;20084;-68
2024/01/23 09:37:13;;;;;;;93.50;44.25;;;;;;;-8.14;69.06;95564.56;5111768;28;20042;-68
2024/01/23 09:39:38;;;;;;;79.85;40.42;;;;;;;-8.14;69.50;95551.97;5110555;28;20492;-68
2024/01/23 09:42:04;;;;;;;80.20;39.78;;;;;;;-7.75;69.28;95559.56;5110652;28;20065;-69
2024/01/23 09:44:29;;;;;;;90.00;41.90;;;;;;;-7.84;69.74;95557.88;5111628;28;20077;-68
2024/01/23 09:46:55;;;;;;;85.70;39.78;;;;;;;-7.83;70.11;95544.41;5110591;28;20072;-68
2024/01/23 09:49:20;;;;;;;76.43;36.95;;;;;;;-7.68;70.32;95549.47;5093447;28;20024;-68
2024/01/23 09:51:48;;;;;;;76.20;35.63;;;;;;;-7.81;70.11;95522.56;5111641;28;20493;-67
2024/01/23 09:54:14;;;;;;;72.47;35.33;;;;;;;-7.74;69.97;95543.59;5092942;28;20028;-68
2024/01/23 09:56:39;;;;;;;65.72;31.42;;;;;;;-7.59;69.99;95533.47;5110302;28;20098;-68
2024/01/23 09:59:06;;;;;;;84.75;38.95;;;;;;;-7.55;70.60;95539.34;5110298;28;20051;-68
2024/01/23 10:01:32;;;;;;;74.53;36.80;;;;;;;-7.30;69.64;95535.09;5110504;28;20163;-68
2024/01/23 10:03:58;;;;;;;81.05;37.15;;;;;;;-7.21;70.03;95535.94;5111407;28;20051;-68
2024/01/23 10:06:25;;;;;;;79.03;38.42;;;;;;;-7.24;69.88;95519.94;5109976;28;20096;-68
2024/01/23 10:08:50;;;;;;;116.80;51.42;;;;;;;-7.06;69.45;95517.34;5110131;28;20036;-68
2024/01/23 10:11:16;;;;;;;82.07;38.72;;;;;;;-7.24;69.16;95499.75;5110408;28;20058;-68
2024/01/23 10:13:42;;;;;;;73.50;36.65;;;;;;;-7.18;69.40;95521.63;5110049;28;20031;-66
2024/01/23 10:16:10;;;;;;;71.13;37.17;;;;;;;-7.03;69.21;95522.38;5110230;28;20059;-68
2024/01/23 10:18:35;;;;;;;78.30;40.42;;;;;;;-7.07;69.45;95508.09;5110054;28;20475;-66
2024/01/23 10:21:01;;;;;;;89.35;40.38;;;;;;;-7.23;69.10;95479.53;5110265;28;20024;-68
2024/01/23 10:23:27;;;;;;;75.88;38.67;;;;;;;-6.95;69.25;95513.94;5109958;28;20028;-68
2024/01/23 10:25:54;;;;;;;82.68;39.80;;;;;;;-6.87;69.48;95505.50;5110198;28;20032;-66
2024/01/23 10:28:21;;;;;;;75.43;37.78;;;;;;;-6.88;69.47;95496.25;5110002;28;20107;-69
2024/01/23 10:30:47;;;;;;;206.20;69.80;;;;;;;-6.52;69.33;95496.88;5093251;28;20046;-68
2024/01/23 10:33:12;;;;;;;117.13;49.00;;;;;;;-6.19;68.24;95439.34;5109926;28;20477;-68
2024/01/23 10:35:38;;;;;;;82.45;40.35;;;;;;;-5.82;67.49;95471.88;5109951;28;20038;-66
2024/01/23 10:38:05;;;;;;;81.25;38.10;;;;;;;-5.96;68.09;95483.00;5092725;28;20042;-66
2024/01/23 10:40:30;;;;;;;77.60;38.72;;;;;;;-5.94;68.49;95470.34;5093170;28;20035;-66
2024/01/23 10:42:56;;;;;;;80.47;38.75;;;;;;;-5.88;68.39;95470.25;5109855;28;20028;-68
2024/01/23 10:45:22;;;;;;;83.55;39.00;;;;;;;-5.92;68.55;95450.88;5109879;28;20024;-67
2024/01/23 10:47:47;;;;;;;77.53;37.38;;;;;;;-5.69;68.28;95460.78;5092845;28;20028;-68
2024/01/23 10:50:12;;;;;;;82.43;37.88;;;;;;;-5.62;68.47;95457.38;5109948;28;20604;-68
2024/01/23 10:52:39;;;;;;;73.85;34.47;;;;;;;-5.55;68.61;95446.31;5092711;28;20028;-68
2024/01/23 10:55:05;;;;;;;63.88;33.83;;;;;;;-5.54;68.67;95440.41;5093040;28;20065;-66
2024/01/23 10:57:35;;;;;;;68.28;34.53;;;;;;;-5.43;68.66;95438.59;5109664;28;20395;-67
2024/01/23 11:00:04;;;;;;;72.78;37.67;;;;;;;-5.39;68.48;95444.47;5093228;28;20023;-67
2024/01/23 11:02:33;;;;;;;69.55;34.95;;;;;;;-5.55;68.58;95438.72;5109718;28;20037;-67
2024/01/23 11:04:58;;;;;;;71.55;36.08;;;;;;;-5.78;68.17;95407.75;5110989;28;20082;-66